createdAt,value
2018-04-19T00:00:41.049Z,8.05
2018-04-19T00:01:40.976Z,8.08
2018-04-19T00:02:41.071Z,8.06
2018-04-19T00:03:41.051Z,8.01
2018-04-19T00:04:40.979Z,8.01
2018-04-19T00:05:40.983Z,7.99
2018-04-19T00:06:41.060Z,7.98
2018-04-19T00:07:41.054Z,7.97
2018-04-19T00:08:41.058Z,7.95
2018-04-19T00:09:40.992Z,7.93
2018-04-19T00:10:40.984Z,7.89
2018-04-19T00:11:40.989Z,7.87
2018-04-19T00:12:41.113Z,7.87
2018-04-19T00:13:41.062Z,7.86
2018-04-19T00:14:40.984Z,7.82
2018-04-19T00:15:40.986Z,7.79
2018-04-19T00:16:41.061Z,7.76
2018-04-19T00:17:41.060Z,7.72
2018-04-19T00:18:41.059Z,7.67
2018-04-19T00:19:41.063Z,7.60
2018-04-19T00:20:41.030Z,7.59
2018-04-19T00:21:40.993Z,7.59
2018-04-19T00:22:40.994Z,7.68
2018-04-19T00:23:40.993Z,7.68
2018-04-19T00:24:41.063Z,7.72
2018-04-19T00:25:40.993Z,7.71
2018-04-19T00:26:41.065Z,7.70
2018-04-19T00:27:41.065Z,7.67
2018-04-19T00:28:41.011Z,7.64
2018-04-19T00:29:41.032Z,7.64
2018-04-19T00:30:40.988Z,7.64
2018-04-19T00:31:41.061Z,7.68
2018-04-19T00:32:41.058Z,7.70
2018-04-19T00:33:41.060Z,7.71
2018-04-19T00:34:40.993Z,7.75
2018-04-19T00:35:41.064Z,7.72
2018-04-19T00:36:41.064Z,7.71
2018-04-19T00:37:40.975Z,7.68
2018-04-19T00:38:41.034Z,7.63
2018-04-19T00:39:41.009Z,7.59
2018-04-19T00:40:41.004Z,7.53
2018-04-19T00:41:41.080Z,7.49
2018-04-19T00:42:41.077Z,7.46
2018-04-19T00:43:41.004Z,7.48
2018-04-19T00:44:41.009Z,7.51
2018-04-19T00:45:41.008Z,7.51
2018-04-19T00:46:41.007Z,7.51
2018-04-19T00:47:41.083Z,7.48
2018-04-19T00:48:41.010Z,7.46
2018-04-19T00:49:41.011Z,7.46
2018-04-19T00:50:40.965Z,7.46
2018-04-19T00:51:41.011Z,7.46
2018-04-19T00:52:41.081Z,7.45
2018-04-19T00:53:41.083Z,7.45
2018-04-19T00:54:41.014Z,7.46
2018-04-19T00:55:41.017Z,7.48
2018-04-19T00:56:41.087Z,7.48
2018-04-19T00:57:41.088Z,7.45
2018-04-19T00:58:41.089Z,7.42
2018-04-19T00:59:41.091Z,7.42
2018-04-19T01:00:41.022Z,7.37
2018-04-19T01:01:41.015Z,7.34
2018-04-19T01:02:41.094Z,7.31
2018-04-19T01:03:41.018Z,7.29
2018-04-19T01:04:41.099Z,7.26
2018-04-19T01:05:41.021Z,7.26
2018-04-19T01:06:41.020Z,7.27
2018-04-19T01:07:41.025Z,7.27
2018-04-19T01:08:41.027Z,7.27
2018-04-19T01:09:41.009Z,7.35
2018-04-19T01:10:41.090Z,7.42
2018-04-19T01:11:40.994Z,7.49
2018-04-19T01:12:41.119Z,7.49
2018-04-19T01:13:41.113Z,7.45
2018-04-19T01:14:41.059Z,7.44
2018-04-19T01:15:41.371Z,7.40
2018-04-19T01:16:41.067Z,7.35
2018-04-19T01:17:40.992Z,7.31
2018-04-19T01:18:41.066Z,7.29
2018-04-19T01:19:41.002Z,7.31
2018-04-19T01:20:41.059Z,7.40
2018-04-19T01:21:41.132Z,7.42
2018-04-19T01:22:41.065Z,7.44
2018-04-19T01:23:41.118Z,7.44
2018-04-19T01:24:41.129Z,7.45
2018-04-19T01:25:41.124Z,7.44
2018-04-19T01:26:41.101Z,7.40
2018-04-19T01:27:41.135Z,7.35
2018-04-19T01:28:41.043Z,7.30
2018-04-19T01:29:41.028Z,7.26
2018-04-19T01:30:41.045Z,7.22
2018-04-19T01:31:41.142Z,7.19
2018-04-19T01:32:41.025Z,7.15
2018-04-19T01:33:41.106Z,7.11
2018-04-19T01:34:41.133Z,7.07
2018-04-19T01:35:41.080Z,7.04
2018-04-19T01:36:41.143Z,7.01
2018-04-19T01:37:41.142Z,6.98
2018-04-19T01:38:41.141Z,7.01
2018-04-19T01:39:41.071Z,6.98
2018-04-19T01:40:41.112Z,7.00
2018-04-19T01:41:41.079Z,7.01
2018-04-19T01:42:41.033Z,7.00
2018-04-19T01:43:41.110Z,7.00
2018-04-19T01:44:41.114Z,7.05
2018-04-19T01:45:41.091Z,7.05
2018-04-19T01:46:41.013Z,7.02
2018-04-19T01:47:41.143Z,7.02
2018-04-19T01:48:41.020Z,7.02
2018-04-19T01:49:41.080Z,7.01
2018-04-19T01:50:41.155Z,6.98
2018-04-19T01:51:41.123Z,6.98
2018-04-19T01:52:41.121Z,6.97
2018-04-19T01:53:41.080Z,6.97
2018-04-19T01:54:41.125Z,7.00
2018-04-19T01:55:41.161Z,7.02
2018-04-19T01:56:41.142Z,7.05
2018-04-19T01:57:41.127Z,7.05
2018-04-19T01:58:41.079Z,7.04
2018-04-19T01:59:41.147Z,7.05
2018-04-19T02:00:41.160Z,7.01
2018-04-19T02:01:41.092Z,7.00
2018-04-19T02:02:41.124Z,7.09
2018-04-19T02:03:41.030Z,7.15
2018-04-19T02:04:41.101Z,7.19
2018-04-19T02:05:41.123Z,7.19
2018-04-19T02:06:41.033Z,7.18
2018-04-19T02:07:41.107Z,7.20
2018-04-19T02:08:41.153Z,7.15
2018-04-19T02:09:41.092Z,7.11
2018-04-19T02:10:41.095Z,7.07
2018-04-19T02:11:41.188Z,7.02
2018-04-19T02:12:41.157Z,7.00
2018-04-19T02:13:41.158Z,6.93
2018-04-19T02:14:41.134Z,6.87
2018-04-19T02:15:41.153Z,6.87
2018-04-19T02:16:41.055Z,6.86
2018-04-19T02:17:41.163Z,6.86
2018-04-19T02:18:41.155Z,6.81
2018-04-19T02:19:41.217Z,6.78
2018-04-19T02:20:41.043Z,6.74
2018-04-19T02:21:41.114Z,6.72
2018-04-19T02:22:41.179Z,6.72
2018-04-19T02:23:41.111Z,6.72
2018-04-19T02:24:41.101Z,6.75
2018-04-19T02:25:41.136Z,6.77
2018-04-19T02:26:41.140Z,6.79
2018-04-19T02:27:41.164Z,6.84
2018-04-19T02:28:41.041Z,6.89
2018-04-19T02:29:41.045Z,6.95
2018-04-19T02:30:41.162Z,6.95
2018-04-19T02:31:41.202Z,6.95
2018-04-19T02:32:41.122Z,6.93
2018-04-19T02:33:41.171Z,6.93
2018-04-19T02:34:41.180Z,6.89
2018-04-19T02:35:41.097Z,6.86
2018-04-19T02:36:41.051Z,6.82
2018-04-19T02:37:41.180Z,6.82
2018-04-19T02:38:41.145Z,6.93
2018-04-19T02:39:41.123Z,6.95
2018-04-19T02:40:41.156Z,6.94
2018-04-19T02:41:41.053Z,6.90
2018-04-19T02:42:41.182Z,6.87
2018-04-19T02:43:41.181Z,6.87
2018-04-19T02:44:41.113Z,6.87
2018-04-19T02:45:41.193Z,6.82
2018-04-19T02:46:41.157Z,6.82
2018-04-19T02:47:41.169Z,6.82
2018-04-19T02:48:41.129Z,6.82
2018-04-19T02:49:41.183Z,6.78
2018-04-19T02:50:41.186Z,6.77
2018-04-19T02:51:41.085Z,6.77
2018-04-19T02:52:41.172Z,6.74
2018-04-19T02:53:41.107Z,6.74
2018-04-19T02:54:41.130Z,6.72
2018-04-19T02:55:41.118Z,6.75
2018-04-19T02:56:41.094Z,6.79
2018-04-19T02:57:41.072Z,6.78
2018-04-19T02:58:41.161Z,6.91
2018-04-19T02:59:41.162Z,6.93
2018-04-19T03:00:41.062Z,6.94
2018-04-19T03:01:41.196Z,6.93
2018-04-19T03:02:41.221Z,6.90
2018-04-19T03:03:41.079Z,6.90
2018-04-19T03:04:41.159Z,6.93
2018-04-19T03:05:41.159Z,6.95
2018-04-19T03:06:41.073Z,7.01
2018-04-19T03:07:41.199Z,7.04
2018-04-19T03:08:41.183Z,7.08
2018-04-19T03:09:41.186Z,7.08
2018-04-19T03:10:41.170Z,7.08
2018-04-19T03:11:41.205Z,7.08
2018-04-19T03:12:41.145Z,7.04
2018-04-19T03:13:41.142Z,7.01
2018-04-19T03:14:41.169Z,6.98
2018-04-19T03:15:41.146Z,6.94
2018-04-19T03:16:41.176Z,6.95
2018-04-19T03:17:41.168Z,6.97
2018-04-19T03:18:41.226Z,6.97
2018-04-19T03:19:41.210Z,6.94
2018-04-19T03:20:41.148Z,6.97
2018-04-19T03:21:41.197Z,6.91
2018-04-19T03:22:41.145Z,6.87
2018-04-19T03:23:41.179Z,6.82
2018-04-19T03:24:41.172Z,6.78
2018-04-19T03:25:41.181Z,6.84
2018-04-19T03:26:41.205Z,6.94
2018-04-19T03:27:41.151Z,7.00
2018-04-19T03:28:41.097Z,6.98
2018-04-19T03:29:41.137Z,6.97
2018-04-19T03:30:41.118Z,6.94
2018-04-19T03:31:41.158Z,6.90
2018-04-19T03:32:41.161Z,6.87
2018-04-19T03:33:41.243Z,6.86
2018-04-19T03:34:41.159Z,6.86
2018-04-19T03:35:41.146Z,6.81
2018-04-19T03:36:41.220Z,6.79
2018-04-19T03:37:41.234Z,6.78
2018-04-19T03:38:41.147Z,6.87
2018-04-19T03:39:41.147Z,6.94
2018-04-19T03:40:41.243Z,6.94
2018-04-19T03:41:41.107Z,6.93
2018-04-19T03:42:41.127Z,6.90
2018-04-19T03:43:41.090Z,6.91
2018-04-19T03:44:41.105Z,6.90
2018-04-19T03:45:41.159Z,6.84
2018-04-19T03:46:41.185Z,6.78
2018-04-19T03:47:41.171Z,6.74
2018-04-19T03:48:41.092Z,6.67
2018-04-19T03:49:41.159Z,6.63
2018-04-19T03:50:41.171Z,6.59
2018-04-19T03:51:41.154Z,6.57
2018-04-19T03:52:41.174Z,6.57
2018-04-19T03:53:41.128Z,6.60
2018-04-19T03:54:41.219Z,6.59
2018-04-19T03:55:41.111Z,6.55
2018-04-19T03:56:41.166Z,6.51
2018-04-19T03:57:41.222Z,6.51
2018-04-19T03:58:41.192Z,6.45
2018-04-19T03:59:41.234Z,6.44
2018-04-19T04:00:41.198Z,6.43
2018-04-19T04:01:41.169Z,6.41
2018-04-19T04:02:41.128Z,6.44
2018-04-19T04:03:41.128Z,6.37
2018-04-19T04:04:41.208Z,6.34
2018-04-19T04:05:41.138Z,6.37
2018-04-19T04:06:41.228Z,6.40
2018-04-19T04:07:41.201Z,6.40
2018-04-19T04:08:41.142Z,6.36
2018-04-19T04:09:41.125Z,6.36
2018-04-19T04:10:41.140Z,6.33
2018-04-19T04:11:41.209Z,6.31
2018-04-19T04:12:41.226Z,6.37
2018-04-19T04:13:41.131Z,6.37
2018-04-19T04:14:41.243Z,6.34
2018-04-19T04:15:41.238Z,6.36
2018-04-19T04:16:41.231Z,6.36
2018-04-19T04:17:41.131Z,6.37
2018-04-19T04:18:41.236Z,6.38
2018-04-19T04:19:41.237Z,6.38
2018-04-19T04:20:41.236Z,6.37
2018-04-19T04:21:41.183Z,6.37
2018-04-19T04:22:41.133Z,6.37
2018-04-19T04:23:41.176Z,6.38
2018-04-19T04:24:41.226Z,6.36
2018-04-19T04:25:41.221Z,6.34
2018-04-19T04:26:41.226Z,6.29
2018-04-19T04:27:41.242Z,6.30
2018-04-19T04:28:41.122Z,6.43
2018-04-19T04:29:41.145Z,6.49
2018-04-19T04:30:41.249Z,6.52
2018-04-19T04:31:41.240Z,6.48
2018-04-19T04:32:41.235Z,6.47
2018-04-19T04:33:41.246Z,6.43
2018-04-19T04:34:41.138Z,6.38
2018-04-19T04:35:41.184Z,6.37
2018-04-19T04:36:41.194Z,6.33
2018-04-19T04:37:41.179Z,6.30
2018-04-19T04:38:41.249Z,6.25
2018-04-19T04:39:41.224Z,6.22
2018-04-19T04:40:41.220Z,6.18
2018-04-19T04:41:41.248Z,6.23
2018-04-19T04:42:41.124Z,6.26
2018-04-19T04:43:41.129Z,6.23
2018-04-19T04:44:41.231Z,6.20
2018-04-19T04:45:41.221Z,6.20
2018-04-19T04:46:41.254Z,6.19
2018-04-19T04:47:41.134Z,6.19
2018-04-19T04:48:41.128Z,6.25
2018-04-19T04:49:41.228Z,6.23
2018-04-19T04:50:41.169Z,6.22
2018-04-19T04:51:41.230Z,6.20
2018-04-19T04:52:41.229Z,6.22
2018-04-19T04:53:41.171Z,6.19
2018-04-19T04:54:41.228Z,6.18
2018-04-19T04:55:41.237Z,6.18
2018-04-19T04:56:41.164Z,6.19
2018-04-19T04:57:41.234Z,6.20
2018-04-19T04:58:41.169Z,6.25
2018-04-19T04:59:41.167Z,6.26
2018-04-19T05:00:41.166Z,6.29
2018-04-19T05:01:41.168Z,6.33
2018-04-19T05:02:41.240Z,6.34
2018-04-19T05:03:41.124Z,6.36
2018-04-19T05:04:41.243Z,6.40
2018-04-19T05:05:41.149Z,6.41
2018-04-19T05:06:41.170Z,6.48
2018-04-19T05:07:41.245Z,6.59
2018-04-19T05:08:41.173Z,6.67
2018-04-19T05:09:41.243Z,6.71
2018-04-19T05:10:41.172Z,6.74
2018-04-19T05:11:41.113Z,6.75
2018-04-19T05:12:41.233Z,6.81
2018-04-19T05:13:41.232Z,6.81
2018-04-19T05:14:41.177Z,6.91
2018-04-19T05:15:41.177Z,6.98
2018-04-19T05:16:41.137Z,6.95
2018-04-19T05:17:41.100Z,6.97
2018-04-19T05:18:41.145Z,6.97
2018-04-19T05:19:41.197Z,6.98
2018-04-19T05:20:41.142Z,7.00
2018-04-19T05:21:41.212Z,7.00
2018-04-19T05:22:41.140Z,7.02
2018-04-19T05:23:41.177Z,7.02
2018-04-19T05:24:41.238Z,7.02
2018-04-19T05:25:41.148Z,7.04
2018-04-19T05:26:41.146Z,7.09
2018-04-19T05:27:41.121Z,7.15
2018-04-19T05:28:41.183Z,7.16
2018-04-19T05:29:41.191Z,7.24
2018-04-19T05:30:41.256Z,7.37
2018-04-19T05:31:41.255Z,7.38
2018-04-19T05:32:41.278Z,7.42
2018-04-19T05:33:41.217Z,7.44
2018-04-19T05:34:41.281Z,7.44
2018-04-19T05:35:41.266Z,7.46
2018-04-19T05:36:41.264Z,7.46
2018-04-19T05:37:41.259Z,7.49
2018-04-19T05:38:41.285Z,7.52
2018-04-19T05:39:41.257Z,7.59
2018-04-19T05:40:41.190Z,7.68
2018-04-19T05:41:41.195Z,7.68
2018-04-19T05:42:41.265Z,7.71
2018-04-19T05:43:41.265Z,7.76
2018-04-19T05:44:41.268Z,7.82
2018-04-19T05:45:41.266Z,7.98
2018-04-19T05:46:41.267Z,8.11
2018-04-19T05:47:41.276Z,8.19
2018-04-19T05:48:41.203Z,8.27
2018-04-19T05:49:41.271Z,8.42
2018-04-19T05:50:41.275Z,8.62
2018-04-19T05:51:41.274Z,8.80
2018-04-19T05:52:41.269Z,9.07
2018-04-19T05:53:41.105Z,9.38
2018-04-19T05:54:41.197Z,9.49
2018-04-19T05:55:41.242Z,9.61
2018-04-19T05:56:41.271Z,9.72
2018-04-19T05:57:41.204Z,9.86
2018-04-19T05:58:41.205Z,10.01
2018-04-19T05:59:41.289Z,10.09
2018-04-19T06:00:41.191Z,10.13
2018-04-19T06:01:41.300Z,10.16
2018-04-19T06:02:41.246Z,10.13
2018-04-19T06:03:41.214Z,10.16
2018-04-19T06:04:41.216Z,10.27
2018-04-19T06:05:41.319Z,10.42
2018-04-19T06:06:41.276Z,10.57
2018-04-19T06:07:41.247Z,10.71
2018-04-19T06:08:41.396Z,10.88
2018-04-19T06:09:41.304Z,11.05
2018-04-19T06:10:41.299Z,11.07
2018-04-19T06:11:41.246Z,11.16
2018-04-19T06:12:41.188Z,11.27
2018-04-19T06:13:41.278Z,11.36
2018-04-19T06:14:41.302Z,11.45
2018-04-19T06:15:41.264Z,11.49
2018-04-19T06:16:41.220Z,11.58
2018-04-19T06:17:41.305Z,11.73
2018-04-19T06:18:41.259Z,11.84
2018-04-19T06:19:41.260Z,11.94
2018-04-19T06:20:41.261Z,12.01
2018-04-19T06:21:41.206Z,12.16
2018-04-19T06:22:41.306Z,12.36
2018-04-19T06:23:41.250Z,12.54
2018-04-19T06:24:41.254Z,12.61
2018-04-19T06:25:41.329Z,12.77
2018-04-19T06:26:41.265Z,13.05
2018-04-19T06:27:41.315Z,13.21
2018-04-19T06:28:41.265Z,13.45
2018-04-19T06:29:41.342Z,13.62
2018-04-19T06:30:41.256Z,13.80
2018-04-19T06:31:41.315Z,14.00
2018-04-19T06:32:41.318Z,14.18
2018-04-19T06:33:41.293Z,14.31
2018-04-19T06:34:41.319Z,14.53
2018-04-19T06:35:41.331Z,14.73
2018-04-19T06:36:41.293Z,14.92
2018-04-19T06:37:41.302Z,15.10
2018-04-19T06:38:41.298Z,15.13
2018-04-19T06:39:41.302Z,15.10
2018-04-19T06:40:41.297Z,15.24
2018-04-19T06:41:41.335Z,15.32
2018-04-19T06:42:41.223Z,15.39
2018-04-19T06:43:41.295Z,15.55
2018-04-19T06:44:41.335Z,15.75
2018-04-19T06:45:41.295Z,15.97
2018-04-19T06:46:41.269Z,16.05
2018-04-19T06:47:41.263Z,16.20
2018-04-19T06:48:41.325Z,16.31
2018-04-19T06:49:41.278Z,16.41
2018-04-19T06:50:41.234Z,16.51
2018-04-19T06:51:41.320Z,16.51
2018-04-19T06:52:41.238Z,16.66
2018-04-19T06:53:41.236Z,16.81
2018-04-19T06:54:41.257Z,16.94
2018-04-19T06:55:41.373Z,17.08
2018-04-19T06:56:41.313Z,17.13
2018-04-19T06:57:41.311Z,17.25
2018-04-19T06:58:41.321Z,17.42
2018-04-19T06:59:41.240Z,17.43
2018-04-19T07:00:41.245Z,17.55
2018-04-19T07:01:41.314Z,17.58
2018-04-19T07:02:41.243Z,17.58
2018-04-19T07:03:41.317Z,17.47
2018-04-19T07:04:41.243Z,17.37
2018-04-19T07:05:41.247Z,17.28
2018-04-19T07:06:41.315Z,17.44
2018-04-19T07:07:41.324Z,17.47
2018-04-19T07:08:41.251Z,17.40
2018-04-19T07:09:41.251Z,17.31
2018-04-19T07:10:41.357Z,17.18
2018-04-19T07:11:41.239Z,17.05
2018-04-19T07:12:41.233Z,17.02
2018-04-19T07:13:41.299Z,17.02
2018-04-19T07:14:41.376Z,17.13
2018-04-19T07:15:41.226Z,17.21
2018-04-19T07:16:41.227Z,17.26
2018-04-19T07:17:41.289Z,17.43
2018-04-19T07:18:41.225Z,17.65
2018-04-19T07:19:41.286Z,17.75
2018-04-19T07:20:41.359Z,17.99
2018-04-19T07:21:41.371Z,18.14
2018-04-19T07:22:41.331Z,18.14
2018-04-19T07:23:41.328Z,18.14
2018-04-19T07:24:41.247Z,18.17
2018-04-19T07:25:41.323Z,18.28
2018-04-19T07:26:41.388Z,18.47
2018-04-19T07:27:41.325Z,18.64
2018-04-19T07:28:41.328Z,18.76
2018-04-19T07:29:41.359Z,18.91
2018-04-19T07:30:41.194Z,18.91
2018-04-19T07:31:41.285Z,19.08
2018-04-19T07:32:41.314Z,19.17
2018-04-19T07:33:41.210Z,19.31
2018-04-19T07:34:41.318Z,19.53
2018-04-19T07:35:41.201Z,19.76
2018-04-19T07:36:41.205Z,19.92
2018-04-19T07:37:41.320Z,20.05
2018-04-19T07:38:41.319Z,20.02
2018-04-19T07:39:41.231Z,20.06
2018-04-19T07:40:41.256Z,20.07
2018-04-19T07:41:41.254Z,20.01
2018-04-19T07:42:41.227Z,20.14
2018-04-19T07:43:41.255Z,20.30
2018-04-19T07:44:41.211Z,20.45
2018-04-19T07:45:41.337Z,20.65
2018-04-19T07:46:41.329Z,20.61
2018-04-19T07:47:41.264Z,20.43
2018-04-19T07:48:41.338Z,20.50
2018-04-19T07:49:41.302Z,20.60
2018-04-19T07:50:41.295Z,20.77
2018-04-19T07:51:41.344Z,20.93
2018-04-19T07:52:41.348Z,20.87
2018-04-19T07:53:41.276Z,20.88
2018-04-19T07:54:41.347Z,20.98
2018-04-19T07:55:41.274Z,21.16
2018-04-19T07:56:41.277Z,21.18
2018-04-19T07:57:41.275Z,21.22
2018-04-19T07:58:41.238Z,21.13
2018-04-19T07:59:41.279Z,21.22
2018-04-19T08:00:41.314Z,21.28
2018-04-19T08:01:41.313Z,21.16
2018-04-19T08:02:41.388Z,21.05
2018-04-19T08:03:41.272Z,21.06
2018-04-19T08:04:41.358Z,21.24
2018-04-19T08:05:41.385Z,21.38
2018-04-19T08:06:41.269Z,21.50
2018-04-19T08:07:41.352Z,21.75
2018-04-19T08:08:41.379Z,21.89
2018-04-19T08:09:41.331Z,21.89
2018-04-19T08:10:41.285Z,21.73
2018-04-19T08:11:41.358Z,21.64
2018-04-19T08:12:41.391Z,21.64
2018-04-19T08:13:41.359Z,21.82
2018-04-19T08:14:41.288Z,22.06
2018-04-19T08:15:41.363Z,22.35
2018-04-19T08:16:41.292Z,22.43
2018-04-19T08:17:41.288Z,22.67
2018-04-19T08:18:41.362Z,22.88
2018-04-19T08:19:41.363Z,23.06
2018-04-19T08:20:41.355Z,22.98
2018-04-19T08:21:41.382Z,22.88
2018-04-19T08:22:41.383Z,22.68
2018-04-19T08:23:41.387Z,22.65
2018-04-19T08:24:41.338Z,22.64
2018-04-19T08:25:41.370Z,22.63
2018-04-19T08:26:41.366Z,22.49
2018-04-19T08:27:41.324Z,22.45
2018-04-19T08:28:41.381Z,22.68
2018-04-19T08:29:41.340Z,22.87
2018-04-19T08:30:41.285Z,22.79
2018-04-19T08:31:41.275Z,22.79
2018-04-19T08:32:41.358Z,22.68
2018-04-19T08:33:41.291Z,22.60
2018-04-19T08:34:41.277Z,22.65
2018-04-19T08:35:41.272Z,22.88
2018-04-19T08:36:41.255Z,23.05
2018-04-19T08:37:41.325Z,23.35
2018-04-19T08:38:41.325Z,23.63
2018-04-19T08:39:41.294Z,23.83
2018-04-19T08:40:41.373Z,24.12
2018-04-19T08:41:41.382Z,24.08
2018-04-19T08:42:41.305Z,23.94
2018-04-19T08:43:41.376Z,23.93
2018-04-19T08:44:41.304Z,23.90
2018-04-19T08:45:41.372Z,23.85
2018-04-19T08:46:41.312Z,23.64
2018-04-19T08:47:41.379Z,23.68
2018-04-19T08:48:41.309Z,23.78
2018-04-19T08:49:41.320Z,23.94
2018-04-19T08:50:41.316Z,24.22
2018-04-19T08:51:41.280Z,24.34
2018-04-19T08:52:41.414Z,24.53
2018-04-19T08:53:41.406Z,24.34
2018-04-19T08:54:41.341Z,24.11
2018-04-19T08:55:41.341Z,24.11
2018-04-19T08:56:41.321Z,24.34
2018-04-19T08:57:41.453Z,24.48
2018-04-19T08:58:41.403Z,24.74
2018-04-19T08:59:41.305Z,25.00
2018-04-19T09:00:41.350Z,25.11
2018-04-19T09:01:41.359Z,25.17
2018-04-19T09:02:41.400Z,25.09
2018-04-19T09:03:41.410Z,24.60
2018-04-19T09:04:41.324Z,24.26
2018-04-19T09:05:41.406Z,24.37
2018-04-19T09:06:41.299Z,24.66
2018-04-19T09:07:41.329Z,24.94
2018-04-19T09:08:41.391Z,25.16
2018-04-19T09:09:41.308Z,25.46
2018-04-19T09:10:41.339Z,25.48
2018-04-19T09:11:41.412Z,25.40
2018-04-19T09:12:41.324Z,25.40
2018-04-19T09:13:41.288Z,25.44
2018-04-19T09:14:41.323Z,25.63
2018-04-19T09:15:41.417Z,25.49
2018-04-19T09:16:41.324Z,25.51
2018-04-19T09:17:41.402Z,25.34
2018-04-19T09:18:41.328Z,25.11
2018-04-19T09:19:41.401Z,24.83
2018-04-19T09:20:41.327Z,24.74
2018-04-19T09:21:41.329Z,24.94
2018-04-19T09:22:41.399Z,25.04
2018-04-19T09:23:41.333Z,25.31
2018-04-19T09:24:41.403Z,25.68
2018-04-19T09:25:41.400Z,25.96
2018-04-19T09:26:41.409Z,26.13
2018-04-19T09:27:41.407Z,26.17
2018-04-19T09:28:41.405Z,26.30
2018-04-19T09:29:41.333Z,26.47
2018-04-19T09:30:41.405Z,26.51
2018-04-19T09:31:41.403Z,26.44
2018-04-19T09:32:41.340Z,26.45
2018-04-19T09:33:41.345Z,26.47
2018-04-19T09:34:41.404Z,26.11
2018-04-19T09:35:41.366Z,25.86
2018-04-19T09:36:41.343Z,25.82
2018-04-19T09:37:41.409Z,25.85
2018-04-19T09:38:41.411Z,26.04
2018-04-19T09:39:41.347Z,26.06
2018-04-19T09:40:41.342Z,26.08
2018-04-19T09:41:41.382Z,26.14
2018-04-19T09:42:41.331Z,26.36
2018-04-19T09:43:41.413Z,26.58
2018-04-19T09:44:41.471Z,26.74
2018-04-19T09:45:41.411Z,26.93
2018-04-19T09:46:41.343Z,27.19
2018-04-19T09:47:41.386Z,26.89
2018-04-19T09:48:41.422Z,26.82
2018-04-19T09:49:41.414Z,26.85
2018-04-19T09:50:41.361Z,26.86
2018-04-19T09:51:41.423Z,26.86
2018-04-19T09:52:41.349Z,26.82
2018-04-19T09:53:41.420Z,26.72
2018-04-19T09:54:41.353Z,26.78
2018-04-19T09:55:41.355Z,26.95
2018-04-19T09:56:41.420Z,27.17
2018-04-19T09:57:41.363Z,27.25
2018-04-19T09:58:41.424Z,27.30
2018-04-19T09:59:41.353Z,27.43
2018-04-19T10:00:41.433Z,27.52
2018-04-19T10:01:41.328Z,27.66
2018-04-19T10:02:41.351Z,27.74
2018-04-19T10:03:41.456Z,27.44
2018-04-19T10:04:41.425Z,27.57
2018-04-19T10:05:41.327Z,27.40
2018-04-19T10:06:41.396Z,27.59
2018-04-19T10:07:41.425Z,27.77
2018-04-19T10:08:41.454Z,27.89
2018-04-19T10:09:41.503Z,28.07
2018-04-19T10:10:41.406Z,28.10
2018-04-19T10:11:41.418Z,27.99
2018-04-19T10:12:41.429Z,28.00
2018-04-19T10:13:41.417Z,27.81
2018-04-19T10:14:41.381Z,27.92
2018-04-19T10:15:41.319Z,27.84
2018-04-19T10:16:41.306Z,27.86
2018-04-19T10:17:41.437Z,27.36
2018-04-19T10:18:41.422Z,27.03
2018-04-19T10:19:41.442Z,27.01
2018-04-19T10:20:41.429Z,27.21
2018-04-19T10:21:41.355Z,27.36
2018-04-19T10:22:41.333Z,27.01
2018-04-19T10:23:41.341Z,27.03
2018-04-19T10:24:41.263Z,27.29
2018-04-19T10:25:41.335Z,27.30
2018-04-19T10:26:41.345Z,27.32
2018-04-19T10:27:41.390Z,27.52
2018-04-19T10:28:41.397Z,27.75
2018-04-19T10:29:41.295Z,27.91
2018-04-19T10:30:41.348Z,28.00
2018-04-19T10:31:41.375Z,27.82
2018-04-19T10:32:41.369Z,27.70
2018-04-19T10:33:41.379Z,27.75
2018-04-19T10:34:41.447Z,27.86
2018-04-19T10:35:41.374Z,27.68
2018-04-19T10:36:41.452Z,27.73
2018-04-19T10:37:41.376Z,27.71
2018-04-19T10:38:41.377Z,27.81
2018-04-19T10:39:41.449Z,27.88
2018-04-19T10:40:41.403Z,28.04
2018-04-19T10:41:41.343Z,28.13
2018-04-19T10:42:41.380Z,28.25
2018-04-19T10:43:41.428Z,28.25
2018-04-19T10:44:41.400Z,28.44
2018-04-19T10:45:41.433Z,28.71
2018-04-19T10:46:41.381Z,28.68
2018-04-19T10:47:41.438Z,28.72
2018-04-19T10:48:41.349Z,28.79
2018-04-19T10:49:41.430Z,28.47
2018-04-19T10:50:41.437Z,28.04
2018-04-19T10:51:41.419Z,27.68
2018-04-19T10:52:41.487Z,27.47
2018-04-19T10:53:41.490Z,27.50
2018-04-19T10:54:41.472Z,27.77
2018-04-19T10:55:41.470Z,27.85
2018-04-19T10:56:41.432Z,28.11
2018-04-19T10:57:41.469Z,28.35
2018-04-19T10:58:41.459Z,28.57
2018-04-19T10:59:41.492Z,28.60
2018-04-19T11:00:41.461Z,28.51
2018-04-19T11:01:41.395Z,28.57
2018-04-19T11:02:41.466Z,28.73
2018-04-19T11:03:41.392Z,28.91
2018-04-19T11:04:41.461Z,29.25
2018-04-19T11:05:41.479Z,29.24
2018-04-19T11:06:41.398Z,29.21
2018-04-19T11:07:41.427Z,28.79
2018-04-19T11:08:41.393Z,28.57
2018-04-19T11:09:41.472Z,28.73
2018-04-19T11:10:41.467Z,28.79
2018-04-19T11:11:41.353Z,28.91
2018-04-19T11:12:41.473Z,29.13
2018-04-19T11:13:41.392Z,29.28
2018-04-19T11:14:41.466Z,28.90
2018-04-19T11:15:41.387Z,28.90
2018-04-19T11:16:41.455Z,28.80
2018-04-19T11:17:41.495Z,28.84
2018-04-19T11:18:41.468Z,29.09
2018-04-19T11:19:41.411Z,29.37
2018-04-19T11:20:41.413Z,29.62
2018-04-19T11:21:41.424Z,29.84
2018-04-19T11:22:41.345Z,29.79
2018-04-19T11:23:41.346Z,29.62
2018-04-19T11:24:41.396Z,29.77
2018-04-19T11:25:41.375Z,29.73
2018-04-19T11:26:41.381Z,29.79
2018-04-19T11:27:41.463Z,29.76
2018-04-19T11:28:41.459Z,29.90
2018-04-19T11:29:41.417Z,29.92
2018-04-19T11:30:41.450Z,30.17
2018-04-19T11:31:41.504Z,30.28
2018-04-19T11:32:41.518Z,30.43
2018-04-19T11:33:41.485Z,30.03
2018-04-19T11:34:41.387Z,29.84
2018-04-19T11:35:41.419Z,29.83
2018-04-19T11:36:41.548Z,29.88
2018-04-19T11:37:41.450Z,29.98
2018-04-19T11:38:41.499Z,30.10
2018-04-19T11:39:41.443Z,30.43
2018-04-19T11:40:41.485Z,30.26
2018-04-19T11:41:41.392Z,30.13
2018-04-19T11:42:41.418Z,30.01
2018-04-19T11:43:41.521Z,29.97
2018-04-19T11:44:41.445Z,29.86
2018-04-19T11:45:41.444Z,29.92
2018-04-19T11:46:41.482Z,29.72
2018-04-19T11:47:41.459Z,29.59
2018-04-19T11:48:41.459Z,29.68
2018-04-19T11:49:41.459Z,29.69
2018-04-19T11:50:41.542Z,29.76
2018-04-19T11:51:41.517Z,29.79
2018-04-19T11:52:41.492Z,29.06
2018-04-19T11:53:41.422Z,29.23
2018-04-19T11:54:41.499Z,29.34
2018-04-19T11:55:41.425Z,29.57
2018-04-19T11:56:41.498Z,29.62
2018-04-19T11:57:41.500Z,29.68
2018-04-19T11:58:41.430Z,29.87
2018-04-19T11:59:41.429Z,30.02
2018-04-19T12:00:41.499Z,29.98
2018-04-19T12:01:41.465Z,29.84
2018-04-19T12:02:41.416Z,29.86
2018-04-19T12:03:41.501Z,29.97
2018-04-19T12:04:41.420Z,29.99
2018-04-19T12:05:41.397Z,29.94
2018-04-19T12:06:41.465Z,29.87
2018-04-19T12:07:41.539Z,29.88
2018-04-19T12:08:41.518Z,29.81
2018-04-19T12:09:41.465Z,29.68
2018-04-19T12:10:41.505Z,29.87
2018-04-19T12:11:41.415Z,29.86
2018-04-19T12:12:41.406Z,29.92
2018-04-19T12:13:41.488Z,30.05
2018-04-19T12:14:41.476Z,30.01
2018-04-19T12:15:41.533Z,29.81
2018-04-19T12:16:41.473Z,29.70
2018-04-19T12:17:41.480Z,29.77
2018-04-19T12:18:41.541Z,29.79
2018-04-19T12:19:41.428Z,29.87
2018-04-19T12:20:41.487Z,29.69
2018-04-19T12:21:41.508Z,29.81
2018-04-19T12:22:41.442Z,29.98
2018-04-19T12:23:41.400Z,29.86
2018-04-19T12:24:41.511Z,29.88
2018-04-19T12:25:41.449Z,29.86
2018-04-19T12:26:41.512Z,29.87
2018-04-19T12:27:41.449Z,29.94
2018-04-19T12:28:41.514Z,29.84
2018-04-19T12:29:41.448Z,29.81
2018-04-19T12:30:41.518Z,29.86
2018-04-19T12:31:41.468Z,29.95
2018-04-19T12:32:41.486Z,30.09
2018-04-19T12:33:41.446Z,30.19
2018-04-19T12:34:41.515Z,30.31
2018-04-19T12:35:41.521Z,30.42
2018-04-19T12:36:41.546Z,30.30
2018-04-19T12:37:41.699Z,30.20
2018-04-19T12:38:41.474Z,30.16
2018-04-19T12:39:41.556Z,30.09
2018-04-19T12:40:41.542Z,30.10
2018-04-19T12:41:41.528Z,30.20
2018-04-19T12:42:41.524Z,30.26
2018-04-19T12:43:41.406Z,30.31
2018-04-19T12:44:41.507Z,30.39
2018-04-19T12:45:41.456Z,30.49
2018-04-19T12:46:41.430Z,30.45
2018-04-19T12:47:41.510Z,30.54
2018-04-19T12:48:41.413Z,30.61
2018-04-19T12:49:41.472Z,30.57
2018-04-19T12:50:41.481Z,30.50
2018-04-19T12:51:41.557Z,30.43
2018-04-19T12:52:41.495Z,30.28
2018-04-19T12:53:41.495Z,30.32
2018-04-19T12:54:41.497Z,30.35
2018-04-19T12:55:41.490Z,30.27
2018-04-19T12:56:41.535Z,30.28
2018-04-19T12:57:41.564Z,30.26
2018-04-19T12:58:41.492Z,30.24
2018-04-19T12:59:41.575Z,30.01
2018-04-19T13:00:41.445Z,29.97
2018-04-19T13:01:41.527Z,29.86
2018-04-19T13:02:41.442Z,29.79
2018-04-19T13:03:41.459Z,29.87
2018-04-19T13:04:41.497Z,30.02